»·PEaware :: N171MA KDRO-KCLM

N171MA :: KDRO-KCLM

FLIGHT INFORMATION

Flight Status: Arrived
Operator: Privately registered:
United States
More flights under this callsign
Pilot: Tim M. (868)
Aircraft: SOCATA TBM-900
(TBM9)
More flights by this aircraft type
Origin: KDRO Durango-La Plata Co
United States
Destination: KCLM Fairchild Intl
United States
More flights between these airports :: More routes between these airports
Route: DVC HELPR PATIO MEVLE CUDDY PDT J20 BRUKK SEA
File this flight plan on PilotEdge
Remarks:
Altitude:
(Current/Filed)
30,000ft
Speed:
(Current/Filed)
319kts
Departed: 02-Dec-19 04:43 PM
Arrived: 02-Dec-19 08:39 PM
Distance/Time
Traveled:
953nm/3:56
Distance/Time
To Go:
Arrived

Flight Plot

Page will automatically refresh every two minutes.

Flight plan parsing failed; only flown route is shown


Map Options




Map Legend


Flown Route
Filed Route
Departure Airport
Arrival Airport
Navaid (VOR, NDB)
Fix

Horizontal Profiles

Position Reports

Time Latitude Longitude Heading Altitude Ground
Speed
02-Dec-19 16:20 37.153385 -107.754714 306 6688ft 0kts
02-Dec-19 16:22 37.153385 -107.754714 306 6688ft 0kts
02-Dec-19 16:23 37.153385 -107.754714 306 6688ft 0kts
02-Dec-19 16:23 37.153385 -107.754714 306 6688ft 0kts
02-Dec-19 16:25 37.153385 -107.754714 306 6688ft 0kts
02-Dec-19 16:25 37.153385 -107.754714 306 6688ft 0kts
02-Dec-19 16:26 37.153385 -107.754714 306 6688ft 0kts
02-Dec-19 16:27 37.153385 -107.754714 306 6688ft 0kts
02-Dec-19 16:28 37.153385 -107.754714 306 6688ft 0kts
02-Dec-19 16:29 37.153385 -107.754714 306 6688ft 0kts
02-Dec-19 16:30 37.153385 -107.754714 306 6688ft 0kts
02-Dec-19 16:31 37.153385 -107.754714 306 6688ft 0kts
02-Dec-19 16:32 37.153385 -107.754714 306 6688ft 0kts
02-Dec-19 16:33 37.153385 -107.754714 306 6688ft 0kts
02-Dec-19 16:34 37.153385 -107.754714 306 6688ft 0kts
02-Dec-19 16:35 37.152624 -107.754399 216 6688ft 9kts
02-Dec-19 16:36 37.152581 -107.754452 37 6688ft 8kts
02-Dec-19 16:37 37.154437 -107.752688 35 6688ft 9kts
02-Dec-19 16:38 37.156703 -107.750512 37 6688ft 10kts
02-Dec-19 16:39 37.159218 -107.748125 37 6688ft 11kts
02-Dec-19 16:40 37.161803 -107.745652 36 6688ft 10kts
02-Dec-19 16:41 37.161424 -107.744368 190 6688ft 13kts
02-Dec-19 16:42 37.140240 -107.766466 244 7589ft 141kts
02-Dec-19 16:43 37.133754 -107.814741 279 9753ft 144kts
02-Dec-19 16:44 37.127953 -107.858851 314 11765ft 139kts
02-Dec-19 16:45 37.154143 -107.893916 305 14044ft 136kts
02-Dec-19 16:46 37.178047 -107.930199 301 16277ft 135kts
02-Dec-19 16:47 37.201275 -107.966319 299 18443ft 135kts
02-Dec-19 16:48 37.224481 -108.002631 297 20589ft 135kts
02-Dec-19 16:49 37.248215 -108.039881 295 22687ft 138kts
02-Dec-19 16:50 37.276551 -108.084619 299 23331ft 204kts
02-Dec-19 16:51 37.316486 -108.147270 300 23304ft 245kts
02-Dec-19 16:52 37.351222 -108.200425 300 26756ft 141kts
02-Dec-19 16:53 37.379654 -108.230369 299 28704ft 136kts
02-Dec-19 16:54 37.408759 -108.260460 298 30285ft 139kts
02-Dec-19 16:55 37.446228 -108.299344 304 30312ft 203kts
02-Dec-19 16:56 37.493365 -108.347785 305 30300ft 232kts
02-Dec-19 16:57 37.545023 -108.401054 306 30285ft 244kts
02-Dec-19 16:58 37.597963 -108.455812 306 30283ft 249kts
02-Dec-19 16:59 37.651795 -108.511595 306 30285ft 250kts
02-Dec-19 17:00 37.705706 -108.567593 306 30285ft 252kts
02-Dec-19 17:01 37.759871 -108.623933 306 30281ft 252kts
02-Dec-19 17:02 37.814057 -108.680415 306 30314ft 253kts
02-Dec-19 17:03 37.868706 -108.737502 305 30320ft 255kts
02-Dec-19 17:04 37.923589 -108.794951 305 30333ft 256kts
02-Dec-19 17:05 37.978536 -108.852579 305 30333ft 256kts
02-Dec-19 17:06 38.033281 -108.910122 305 30332ft 256kts
02-Dec-19 17:07 38.087329 -108.967015 305 30329ft 256kts
02-Dec-19 17:08 38.138880 -109.021412 305 30332ft 256kts
02-Dec-19 17:09 38.194290 -109.079986 305 30335ft 256kts
02-Dec-19 17:10 38.247236 -109.136068 305 30338ft 255kts
02-Dec-19 17:11 38.301859 -109.194039 305 30333ft 256kts
02-Dec-19 17:12 38.356287 -109.251914 305 30323ft 257kts
02-Dec-19 17:13 38.410790 -109.310008 305 30314ft 258kts
02-Dec-19 17:14 38.465513 -109.368441 305 30312ft 258kts
02-Dec-19 17:15 38.520247 -109.427006 305 30312ft 257kts
02-Dec-19 17:16 38.574843 -109.485544 305 30311ft 258kts
02-Dec-19 17:17 38.629709 -109.544496 305 30311ft 258kts
02-Dec-19 17:18 38.684664 -109.603662 305 30309ft 258kts
02-Dec-19 17:19 38.739177 -109.662486 304 30330ft 258kts
02-Dec-19 17:20 38.794582 -109.722386 305 30327ft 260kts
02-Dec-19 17:21 38.848995 -109.781327 305 30326ft 261kts
02-Dec-19 17:22 38.904592 -109.841676 305 30321ft 262kts
02-Dec-19 17:23 38.959967 -109.901933 305 30311ft 263kts
02-Dec-19 17:24 39.014975 -109.961907 305 30305ft 262kts
02-Dec-19 17:25 39.070610 -110.022675 304 30305ft 263kts
02-Dec-19 17:26 39.126291 -110.083662 304 30307ft 264kts
02-Dec-19 17:27 39.182210 -110.145023 304 30313ft 263kts
02-Dec-19 17:28 39.237768 -110.206124 305 30315ft 264kts
02-Dec-19 17:29 39.293172 -110.267180 305 30314ft 264kts
02-Dec-19 17:30 39.348680 -110.328483 304 30313ft 264kts
02-Dec-19 17:31 39.404581 -110.390369 305 30312ft 265kts
02-Dec-19 17:32 39.460536 -110.452431 305 30311ft 265kts
02-Dec-19 17:33 39.516525 -110.514676 305 30311ft 265kts
02-Dec-19 17:34 39.572569 -110.577119 305 30307ft 265kts
02-Dec-19 17:35 39.628472 -110.639544 305 30303ft 265kts
02-Dec-19 17:36 39.684737 -110.702523 304 30318ft 266kts
02-Dec-19 17:37 39.741258 -110.765916 304 30308ft 268kts
02-Dec-19 17:38 39.797433 -110.829061 304 30306ft 268kts
02-Dec-19 17:39 39.853414 -110.892145 304 30304ft 268kts
02-Dec-19 17:40 39.909419 -110.955376 304 30297ft 268kts
02-Dec-19 17:41 39.965317 -111.018636 304 30289ft 268kts
02-Dec-19 17:42 40.020632 -111.081419 305 30281ft 267kts
02-Dec-19 17:43 40.075988 -111.144321 305 30273ft 266kts
02-Dec-19 17:44 40.131519 -111.207560 305 30267ft 266kts
02-Dec-19 17:45 40.187049 -111.271003 305 30263ft 266kts
02-Dec-19 17:46 40.242547 -111.334518 305 30246ft 267kts
02-Dec-19 17:47 40.297397 -111.397436 305 30230ft 267kts
02-Dec-19 17:48 40.352658 -111.460971 305 30220ft 267kts
02-Dec-19 17:49 40.407980 -111.524719 305 30219ft 267kts
02-Dec-19 17:50 40.462995 -111.588269 305 30218ft 266kts
02-Dec-19 17:51 40.517610 -111.651481 304 30219ft 265kts
02-Dec-19 17:52 40.572897 -111.715634 304 30234ft 267kts
02-Dec-19 17:53 40.627902 -111.779593 304 30233ft 268kts
02-Dec-19 17:54 40.682331 -111.843031 304 30242ft 267kts
02-Dec-19 17:55 40.737035 -111.906927 304 30268ft 267kts
02-Dec-19 17:56 40.791454 -111.970653 304 30284ft 266kts
02-Dec-19 17:57 40.845879 -112.034530 305 30290ft 266kts
02-Dec-19 17:58 40.900489 -112.098767 305 30293ft 267kts
02-Dec-19 17:59 40.955069 -112.163105 305 30291ft 267kts
02-Dec-19 18:00 41.009537 -112.227469 305 30290ft 266kts
02-Dec-19 18:01 41.063716 -112.291656 305 30289ft 266kts
02-Dec-19 18:02 41.117972 -112.356054 305 30283ft 266kts
02-Dec-19 18:03 41.172364 -112.420764 305 30284ft 265kts
02-Dec-19 18:04 41.226445 -112.485264 305 30284ft 265kts
02-Dec-19 18:05 41.279696 -112.549308 305 30283ft 264kts
02-Dec-19 18:06 41.332382 -112.613898 305 30287ft 264kts
02-Dec-19 18:07 41.385856 -112.679661 305 30320ft 267kts
02-Dec-19 18:08 41.440250 -112.746577 305 30317ft 272kts
02-Dec-19 18:09 41.495191 -112.814469 304 30306ft 273kts
02-Dec-19 18:10 41.550751 -112.883270 305 30295ft 276kts
02-Dec-19 18:11 41.605901 -112.951759 305 30300ft 276kts
02-Dec-19 18:12 41.661453 -113.020791 305 30270ft 275kts
02-Dec-19 18:13 41.716251 -113.089143 305 30315ft 273kts
02-Dec-19 18:14 41.771650 -113.158426 304 30253ft 274kts
02-Dec-19 18:15 41.826505 -113.227195 305 30320ft 273kts
02-Dec-19 18:16 41.880136 -113.294506 305 30318ft 274kts
02-Dec-19 18:18 41.936371 -113.365400 304 30284ft 275kts
02-Dec-19 18:19 41.991282 -113.434762 305 30268ft 275kts
02-Dec-19 18:20 42.046913 -113.505184 306 30231ft 278kts
02-Dec-19 18:21 42.102852 -113.576162 306 30258ft 277kts
02-Dec-19 18:22 42.158804 -113.647295 304 30259ft 274kts
02-Dec-19 18:23 42.214852 -113.718820 305 30263ft 273kts
02-Dec-19 18:24 42.269504 -113.788729 304 30267ft 271kts
02-Dec-19 18:25 42.323760 -113.858292 304 30266ft 270kts
02-Dec-19 18:26 42.377899 -113.927879 305 30266ft 269kts
02-Dec-19 18:27 42.431774 -113.997291 305 30265ft 269kts
02-Dec-19 18:28 42.485864 -114.067179 305 30266ft 271kts
02-Dec-19 18:29 42.539853 -114.137083 305 30268ft 272kts
02-Dec-19 18:30 42.593877 -114.207226 306 30270ft 273kts
02-Dec-19 18:31 42.648393 -114.278175 306 30270ft 273kts
02-Dec-19 18:32 42.702923 -114.349336 307 30269ft 275kts
02-Dec-19 18:33 42.757982 -114.421342 307 30270ft 275kts
02-Dec-19 18:34 42.811513 -114.491559 307 30269ft 276kts
02-Dec-19 18:35 42.866733 -114.564174 307 30268ft 277kts
02-Dec-19 18:36 42.921361 -114.636192 308 30267ft 278kts
02-Dec-19 18:36 42.969968 -114.694032 311 30280ft 282kts
02-Dec-19 18:38 43.039050 -114.775430 310 30290ft 287kts
02-Dec-19 18:39 43.098886 -114.846098 311 30317ft 289kts
02-Dec-19 18:39 43.149942 -114.906580 311 30261ft 290kts
02-Dec-19 18:40 43.209844 -114.977693 312 30317ft 291kts
02-Dec-19 18:42 43.281470 -115.063001 313 30290ft 293kts
02-Dec-19 18:43 43.343382 -115.137044 314 30300ft 293kts
02-Dec-19 18:43 43.395131 -115.198965 313 30292ft 296kts
02-Dec-19 18:44 43.457019 -115.273224 315 30300ft 295kts
02-Dec-19 18:45 43.518373 -115.347186 315 30328ft 295kts
02-Dec-19 18:46 43.579349 -115.420814 315 30316ft 297kts
02-Dec-19 18:47 43.641245 -115.495752 315 30291ft 297kts
02-Dec-19 18:48 43.703191 -115.570988 316 30325ft 298kts
02-Dec-19 18:49 43.764735 -115.645950 317 30270ft 299kts
02-Dec-19 18:51 43.837865 -115.735247 317 30291ft 299kts
02-Dec-19 18:51 43.890340 -115.799623 316 30261ft 301kts
02-Dec-19 18:52 43.953084 -115.876706 317 30286ft 299kts
02-Dec-19 18:53 44.016154 -115.954400 317 30255ft 303kts
02-Dec-19 18:54 44.079063 -116.032151 316 30271ft 303kts
02-Dec-19 18:55 44.142168 -116.110413 317 30296ft 303kts
02-Dec-19 18:56 44.205199 -116.188744 317 30327ft 302kts
02-Dec-19 18:57 44.268495 -116.267697 317 30308ft 303kts
02-Dec-19 18:58 44.331371 -116.346311 318 30328ft 305kts
02-Dec-19 18:59 44.394260 -116.425274 318 30295ft 303kts
02-Dec-19 19:00 44.457219 -116.504493 318 30201ft 305kts
02-Dec-19 19:01 44.515304 -116.589254 308 30233ft 303kts
02-Dec-19 19:02 44.565228 -116.684501 308 30181ft 304kts
02-Dec-19 19:03 44.614646 -116.779060 308 30224ft 302kts
02-Dec-19 19:04 44.664388 -116.874769 308 30215ft 306kts
02-Dec-19 19:05 44.714248 -116.971016 309 30272ft 303kts
02-Dec-19 19:06 44.763901 -117.067025 309 30312ft 304kts
02-Dec-19 19:07 44.813715 -117.164032 311 30265ft 305kts
02-Dec-19 19:08 44.862576 -117.258885 311 30262ft 304kts
02-Dec-19 19:09 44.910112 -117.352601 312 30288ft 302kts
02-Dec-19 19:10 44.950103 -117.430370 311 30291ft 303kts
02-Dec-19 19:11 44.995398 -117.519396 311 30262ft 303kts
02-Dec-19 19:12 45.052649 -117.632369 311 30271ft 301kts
02-Dec-19 19:13 45.101995 -117.730104 311 30244ft 302kts
02-Dec-19 19:14 45.150665 -117.826870 311 30256ft 302kts
02-Dec-19 19:15 45.199176 -117.923544 311 30243ft 301kts
02-Dec-19 19:16 45.246614 -118.018489 311 30226ft 303kts
02-Dec-19 19:17 45.294549 -118.114720 311 30211ft 303kts
02-Dec-19 19:18 45.342944 -118.212194 311 30198ft 300kts
02-Dec-19 19:19 45.390909 -118.309150 311 30203ft 299kts
02-Dec-19 19:20 45.438781 -118.406250 311 30208ft 299kts
02-Dec-19 19:21 45.486510 -118.503389 311 30224ft 298kts
02-Dec-19 19:22 45.533921 -118.600193 311 30228ft 298kts
02-Dec-19 19:23 45.581128 -118.696903 310 30248ft 297kts
02-Dec-19 19:24 45.627425 -118.792109 310 30254ft 296kts
02-Dec-19 19:25 45.673339 -118.886823 310 30268ft 296kts
02-Dec-19 19:26 45.722529 -118.979355 315 30286ft 293kts
02-Dec-19 19:27 45.774302 -119.066573 315 30299ft 294kts
02-Dec-19 19:28 45.826538 -119.154933 315 30298ft 294kts
02-Dec-19 19:29 45.879266 -119.244411 314 30297ft 294kts
02-Dec-19 19:30 45.932011 -119.334221 314 30297ft 294kts
02-Dec-19 19:31 45.984265 -119.423460 314 30297ft 293kts
02-Dec-19 19:32 46.036372 -119.512766 314 30295ft 291kts
02-Dec-19 19:33 46.088218 -119.601886 314 30295ft 290kts
02-Dec-19 19:34 46.138451 -119.688524 313 30309ft 291kts
02-Dec-19 19:35 46.190404 -119.778437 313 30311ft 292kts
02-Dec-19 19:36 46.239116 -119.873046 310 30313ft 294kts
02-Dec-19 19:37 46.287690 -119.967940 310 30313ft 294kts
02-Dec-19 19:38 46.335727 -120.062090 310 30314ft 294kts
02-Dec-19 19:39 46.383599 -120.156241 310 30299ft 294kts
02-Dec-19 19:40 46.431951 -120.251661 310 30284ft 293kts
02-Dec-19 19:41 46.479803 -120.346423 310 30283ft 292kts
02-Dec-19 19:42 46.527693 -120.441584 310 30282ft 291kts
02-Dec-19 19:43 46.575142 -120.536172 310 30281ft 290kts
02-Dec-19 19:44 46.622350 -120.630631 310 30281ft 289kts
02-Dec-19 19:45 46.669344 -120.724953 309 30282ft 289kts
02-Dec-19 19:46 46.715805 -120.818525 309 30282ft 288kts
02-Dec-19 19:47 46.762864 -120.913627 309 30271ft 288kts
02-Dec-19 19:48 46.809754 -121.008709 309 30249ft 288kts
02-Dec-19 19:49 46.856593 -121.104003 308 30211ft 288kts
02-Dec-19 19:50 46.903362 -121.199489 308 30173ft 288kts
02-Dec-19 19:51 46.949822 -121.294701 308 30169ft 287kts
02-Dec-19 19:52 46.996954 -121.391557 308 29129ft 295kts
02-Dec-19 19:53 47.044092 -121.488833 307 27808ft 294kts
02-Dec-19 19:54 47.090713 -121.585380 307 26524ft 293kts
02-Dec-19 19:55 47.137836 -121.683275 306 25247ft 294kts
02-Dec-19 19:56 47.184686 -121.780964 305 24174ft 290kts
02-Dec-19 19:57 47.229198 -121.874104 305 24170ft 268kts
02-Dec-19 19:58 47.271431 -121.962744 305 24178ft 260kts
02-Dec-19 19:59 47.312937 -122.050154 305 24192ft 258kts
02-Dec-19 20:00 47.354108 -122.137129 305 24205ft 257kts
02-Dec-19 20:01 47.395122 -122.224045 305 24208ft 257kts
02-Dec-19 20:02 47.431890 -122.302198 305 24206ft 257kts
02-Dec-19 20:03 47.473692 -122.374836 311 23153ft 284kts
02-Dec-19 20:04 47.520676 -122.455007 310 21416ft 298kts
02-Dec-19 20:05 47.573338 -122.545153 310 19420ft 292kts
02-Dec-19 20:06 47.629326 -122.641334 309 17265ft 289kts
02-Dec-19 20:07 47.686077 -122.739166 308 15978ft 248kts
02-Dec-19 20:08 47.727969 -122.811621 308 15994ft 226kts
02-Dec-19 20:09 47.768543 -122.881993 308 15999ft 222kts
02-Dec-19 20:10 47.808150 -122.950856 308 15994ft 220kts
02-Dec-19 20:11 47.847819 -123.020023 308 15989ft 220kts
02-Dec-19 20:12 47.887686 -123.089697 308 15986ft 220kts
02-Dec-19 20:13 47.927244 -123.159009 307 15984ft 219kts
02-Dec-19 20:14 47.965636 -123.229746 296 15980ft 217kts
02-Dec-19 20:15 47.995667 -123.318848 295 14176ft 256kts
02-Dec-19 20:16 48.027342 -123.414215 294 12170ft 247kts
02-Dec-19 20:17 48.055915 -123.500566 293 10117ft 224kts
02-Dec-19 20:18 48.080830 -123.576119 293 9977ft 187kts
02-Dec-19 20:19 48.102361 -123.641598 293 9984ft 174kts
02-Dec-19 20:20 48.123599 -123.706359 292 9990ft 171kts
02-Dec-19 20:21 48.143704 -123.767802 292 10000ft 170kts
02-Dec-19 20:22 48.164441 -123.831329 292 10000ft 170kts
02-Dec-19 20:23 48.185252 -123.895243 292 9998ft 170kts
02-Dec-19 20:24 48.212586 -123.951712 314 9910ft 181kts
02-Dec-19 20:25 48.241025 -124.004323 258 7844ft 200kts
02-Dec-19 20:26 48.204202 -124.005323 114 5759ft 230kts
02-Dec-19 20:27 48.194284 -123.926019 103 4673ft 192kts
02-Dec-19 20:28 48.183698 -123.867699 107 4692ft 128kts
02-Dec-19 20:29 48.175815 -123.823383 107 4530ft 115kts
02-Dec-19 20:31 48.168155 -123.780118 106 3893ft 114kts
02-Dec-19 20:32 48.160601 -123.737278 105 3315ft 110kts
02-Dec-19 20:33 48.152981 -123.696261 111 2792ft 109kts
02-Dec-19 20:34 48.145958 -123.653362 106 2202ft 106kts
02-Dec-19 20:35 48.139195 -123.613855 103 1695ft 108kts
02-Dec-19 20:36 48.131976 -123.572916 104 1180ft 111kts
02-Dec-19 20:37 48.125220 -123.536007 105 674ft 93kts
02-Dec-19 20:38 48.119836 -123.504687 103 281ft 70kts
02-Dec-19 20:39 48.117559 -123.497324 150 269ft 8kts
02-Dec-19 20:40 48.116774 -123.493669 104 277ft 5kts
02-Dec-19 20:41 48.116755 -123.493543 99 278ft 0kts
02-Dec-19 20:42 48.116755 -123.493543 99 278ft 0kts

Navigation Log

Ident Type
Flight plan parsing failed, navigation log unavailable